Time;durP1;ratioP1;P1;durP2;ratioP2;P2;SDS_P1;SDS_P2;PMS_P1;PMS_P2;Temp;Humidity;BMP_temperature;BMP_pressure;BME280_temperature;BME280_humidity;BME280_pressure;Samples;Min_cycle;Max_cycle;Signal;HPM_P1;HPM_P2
2023/09/29 00:00:19;;;;;;;;;;;16.00;70.80;;;;;;4154664;28;19963;-86
2023/09/29 00:02:20;;;;;;;;;;;15.90;70.80;;;;;;4140705;28;20322;-86
2023/09/29 00:04:21;;;;;;;;;;;16.00;70.80;;;;;;4135743;28;19913;-86
2023/09/29 00:06:22;;;;;;;;;;;15.90;70.80;;;;;;4139939;28;20518;-87
2023/09/29 00:08:32;;;;;;;;;;;16.00;70.80;;;;;;4152215;28;19917;-86
2023/09/29 00:13:47;;;;;;;;;;;15.90;70.50;;;;;;4154073;28;19920;-86
2023/09/29 00:15:48;;;;;;;;;;;16.00;70.60;;;;;;4153214;28;19957;-86
2023/09/29 00:18:05;;;;;;;;;;;16.00;70.70;;;;;;4156573;28;20414;-85
2023/09/29 00:20:26;;;;;;;;;;;16.00;70.70;;;;;;4152280;28;19929;-86
2023/09/29 00:22:46;;;;;;;;;;;15.90;70.90;;;;;;4151154;28;19928;-86
2023/09/29 00:25:14;;;;;;;;;;;16.00;70.90;;;;;;4139762;28;19921;-86
2023/09/29 00:27:34;;;;;;;;;;;15.90;70.80;;;;;;4140927;28;20250;-86
2023/09/29 00:29:55;;;;;;;;;;;15.90;70.90;;;;;;4151143;28;19967;-86
2023/09/29 00:32:15;;;;;;;;;;;16.00;71.00;;;;;;4145385;28;19921;-86
2023/09/29 00:34:16;;;;;;;;;;;15.90;71.00;;;;;;4118976;28;19968;-86
2023/09/29 00:36:29;;;;;;;;;;;15.90;71.20;;;;;;4132217;28;19921;-86
2023/09/29 00:38:29;;;;;;;;;;;15.90;71.00;;;;;;4150995;28;19929;-87
2023/09/29 00:40:33;;;;;;;;;;;15.90;71.20;;;;;;4131494;28;20027;-86
2023/09/29 00:42:54;;;;;;;;;;;15.90;71.20;;;;;;4149228;28;20341;-86
2023/09/29 00:45:20;;;;;;;;;;;16.00;71.20;;;;;;4153367;28;19924;-86
2023/09/29 00:47:38;;;;;;;;;;;15.90;70.90;;;;;;4150937;28;20545;-87
2023/09/29 00:49:39;;;;;;;;;;;16.00;70.90;;;;;;4147470;28;19917;-86
2023/09/29 00:51:40;;;;;;;;;;;15.90;70.90;;;;;;4150335;28;19913;-87
2023/09/29 00:53:41;;;;;;;;;;;15.90;71.00;;;;;;4152355;28;20408;-86
2023/09/29 00:55:45;;;;;;;;;;;15.90;71.20;;;;;;4165807;28;20013;-87
2023/09/29 00:57:48;;;;;;;;;;;15.80;70.90;;;;;;4176513;28;19944;-86
2023/09/29 00:59:51;;;;;;;;;;;15.90;71.00;;;;;;4167406;28;20565;-86
2023/09/29 01:01:52;;;;;;;;;;;15.90;71.60;;;;;;4134078;28;20020;-86
2023/09/29 01:03:53;;;;;;;;;;;15.80;71.00;;;;;;4148449;28;19913;-87
2023/09/29 01:06:01;;;;;;;;;;;15.90;71.20;;;;;;4118749;28;20463;-87
2023/09/29 01:08:08;;;;;;;;;;;15.80;71.00;;;;;;4149894;28;19984;-86
2023/09/29 01:10:17;;;;;;;;;;;15.80;71.00;;;;;;4148098;28;20426;-87
2023/09/29 01:12:28;;;;;;;;;;;15.90;71.20;;;;;;4114191;28;20104;-87
2023/09/29 01:14:34;;;;;;;;;;;15.80;71.10;;;;;;4132723;28;20319;-87
2023/09/29 01:16:55;;;;;;;;;;;15.90;71.50;;;;;;4149690;28;19952;-87
2023/09/29 01:19:16;;;;;;;;;;;15.80;71.40;;;;;;4147893;28;19990;-86
2023/09/29 01:21:36;;;;;;;;;;;15.80;71.10;;;;;;4138516;28;19995;-87
2023/09/29 01:23:37;;;;;;;;;;;15.70;71.00;;;;;;4133189;28;19917;-87
2023/09/29 01:26:16;;;;;;;;;;;15.80;71.10;;;;;;4151851;28;20382;-86
2023/09/29 01:28:39;;;;;;;;;;;15.70;71.10;;;;;;4151587;28;19914;-87
2023/09/29 01:31:00;;;;;;;;;;;15.70;71.20;;;;;;4150743;28;20282;-86
2023/09/29 01:33:28;;;;;;;;;;;15.70;71.30;;;;;;4153050;28;19920;-87
2023/09/29 01:35:49;;;;;;;;;;;15.70;71.20;;;;;;4150613;28;19928;-86
2023/09/29 01:38:09;;;;;;;;;;;15.70;71.30;;;;;;4145454;28;19921;-86
2023/09/29 01:40:30;;;;;;;;;;;15.80;71.40;;;;;;4704205;22;19937;-87
2023/09/29 01:43:01;;;;;;;;;;;;;;;;;;;;;
2023/09/29 01:45:25;;;;;;;;;;;15.70;72.10;;;;;;4156197;28;19924;-87
2023/09/29 01:47:46;;;;;;;;;;;15.80;71.40;;;;;;4150503;28;20043;-86
2023/09/29 01:50:07;;;;;;;;;;;15.80;71.40;;;;;;4152566;28;19960;-87
2023/09/29 01:52:28;;;;;;;;;;;15.70;71.40;;;;;;4151315;28;19917;-87
2023/09/29 01:54:49;;;;;;;;;;;15.70;71.50;;;;;;4153108;28;19923;-87
2023/09/29 01:57:24;;;;;;;;;;;15.70;71.50;;;;;;4154781;28;19921;-87
2023/09/29 01:59:50;;;;;;;;;;;15.70;71.50;;;;;;4156458;28;19952;-86
2023/09/29 02:02:11;;;;;;;;;;;15.70;71.50;;;;;;4150941;28;19956;-86
2023/09/29 02:04:31;;;;;;;;;;;15.70;71.60;;;;;;4154163;28;19924;-87
2023/09/29 02:06:53;;;;;;;;;;;15.70;71.70;;;;;;4157477;28;19924;-86
2023/09/29 02:09:26;;;;;;;;;;;15.70;71.60;;;;;;4154654;28;19913;-87
2023/09/29 02:14:07;;;;;;;;;;;15.70;71.70;;;;;;4152616;28;19928;-86
2023/09/29 02:18:46;;;;;;;;;;;15.60;71.60;;;;;;4154859;28;20496;-87
2023/09/29 02:23:10;;;;;;;;;;;15.60;71.40;;;;;;4492127;22;19925;-86
2023/09/29 02:25:11;;;;;;;;;;;15.70;71.70;;;;;;4168561;28;19961;-86
2023/09/29 02:27:12;;;;;;;;;;;15.60;71.50;;;;;;4179820;28;19917;-87
2023/09/29 02:29:13;;;;;;;;;;;15.60;71.60;;;;;;4173881;28;19984;-87
2023/09/29 02:31:36;;;;;;;;;;;15.60;71.70;;;;;;4179299;28;20446;-86
2023/09/29 02:33:38;;;;;;;;;;;15.60;71.90;;;;;;4172880;28;19923;-87
2023/09/29 02:35:59;;;;;;;;;;;15.60;71.90;;;;;;4159693;28;19921;-87
2023/09/29 02:38:20;;;;;;;;;;;15.60;71.80;;;;;;4157896;28;19940;-87
2023/09/29 02:40:46;;;;;;;;;;;15.60;71.80;;;;;;4194380;28;19920;-87
2023/09/29 02:43:07;;;;;;;;;;;15.60;71.80;;;;;;4192071;28;19939;-89
2023/09/29 02:45:28;;;;;;;;;;;15.70;72.00;;;;;;4193491;28;19905;-87
2023/09/29 02:48:05;;;;;;;;;;;15.60;71.90;;;;;;4187095;28;19972;-87
2023/09/29 02:50:26;;;;;;;;;;;15.60;72.00;;;;;;4193205;28;19949;-87
2023/09/29 02:54:57;;;;;;;;;;;15.60;72.00;;;;;;4293736;22;19920;-87
2023/09/29 02:57:17;;;;;;;;;;;15.60;72.00;;;;;;4190522;28;19947;-86
2023/09/29 02:59:38;;;;;;;;;;;15.70;72.20;;;;;;4191059;28;21424;-88
2023/09/29 03:01:58;;;;;;;;;;;15.70;72.10;;;;;;4160507;28;19959;-86
2023/09/29 03:04:00;;;;;;;;;;;15.60;72.10;;;;;;4156175;28;19974;-86
2023/09/29 03:06:21;;;;;;;;;;;15.70;72.20;;;;;;4156101;28;19913;-87
2023/09/29 03:08:23;;;;;;;;;;;15.70;72.30;;;;;;4149952;28;20044;-86
2023/09/29 03:10:25;;;;;;;;;;;15.60;72.20;;;;;;4133676;28;20071;-86
2023/09/29 03:12:26;;;;;;;;;;;15.60;72.30;;;;;;4153340;28;19921;-87
2023/09/29 03:14:28;;;;;;;;;;;15.60;72.40;;;;;;4135803;28;19913;-86
2023/09/29 03:16:29;;;;;;;;;;;15.60;72.40;;;;;;4154089;28;19970;-86
2023/09/29 03:18:30;;;;;;;;;;;15.60;72.40;;;;;;4169887;28;19940;-87
2023/09/29 03:20:32;;;;;;;;;;;15.60;72.40;;;;;;4342557;23;19936;-86
2023/09/29 03:22:33;;;;;;;;;;;15.60;72.50;;;;;;4154265;28;19993;-86
2023/09/29 03:24:37;;;;;;;;;;;15.60;72.40;;;;;;4149829;28;19917;-86
2023/09/29 03:26:51;;;;;;;;;;;15.60;72.40;;;;;;4155619;28;19919;-87
2023/09/29 03:29:05;;;;;;;;;;;15.60;72.50;;;;;;4113075;28;19948;-87
2023/09/29 03:31:09;;;;;;;;;;;15.60;72.50;;;;;;4123666;28;20522;-86
2023/09/29 03:33:10;;;;;;;;;;;15.60;72.50;;;;;;4151632;28;19923;-87
2023/09/29 03:35:10;;;;;;;;;;;15.60;72.50;;;;;;4154121;28;19921;-87
2023/09/29 03:37:12;;;;;;;;;;;15.60;72.60;;;;;;4138214;28;19983;-87
2023/09/29 03:39:22;;;;;;;;;;;15.70;72.60;;;;;;4134873;28;19941;-86
2023/09/29 03:41:43;;;;;;;;;;;15.60;72.50;;;;;;4143729;28;20334;-87
2023/09/29 03:43:44;;;;;;;;;;;15.60;72.70;;;;;;4135904;28;20410;-87
2023/09/29 03:46:15;;;;;;;;;;;15.60;72.80;;;;;;4153276;28;20494;-86
2023/09/29 03:48:42;;;;;;;;;;;15.60;72.70;;;;;;4151717;28;20008;-86
2023/09/29 03:51:45;;;;;;;;;;;15.60;72.60;;;;;;4139076;28;19921;-86
2023/09/29 03:53:59;;;;;;;;;;;15.70;72.80;;;;;;4155111;28;19917;-87
2023/09/29 03:56:22;;;;;;;;;;;15.70;72.70;;;;;;4154226;28;20397;-87
2023/09/29 04:01:40;;;;;;;;;;;15.70;72.80;;;;;;3482821;26;21002;-87
2023/09/29 04:04:01;;;;;;;;;;;15.60;72.70;;;;;;4142616;28;20004;-86
2023/09/29 04:06:21;;;;;;;;;;;15.60;72.70;;;;;;4156917;28;19924;-86
2023/09/29 04:08:42;;;;;;;;;;;15.60;72.80;;;;;;4143565;28;19913;-86
2023/09/29 04:11:03;;;;;;;;;;;15.70;72.80;;;;;;4140560;28;19918;-86
2023/09/29 04:13:26;;;;;;;;;;;15.50;72.80;;;;;;4124349;28;19997;-86
2023/09/29 04:15:47;;;;;;;;;;;15.70;72.90;;;;;;4142016;28;19979;-86
2023/09/29 04:18:08;;;;;;;;;;;15.70;72.80;;;;;;4138461;28;19918;-86
2023/09/29 04:21:07;;;;;;;;;;;15.70;73.40;;;;;;4141050;28;19917;-86
2023/09/29 04:23:28;;;;;;;;;;;15.50;72.90;;;;;;4135918;28;20369;-86
2023/09/29 04:25:47;;;;;;;;;;;15.70;73.00;;;;;;4140445;28;20017;-86
2023/09/29 04:27:47;;;;;;;;;;;15.60;72.90;;;;;;4123192;28;20419;-86
2023/09/29 04:29:48;;;;;;;;;;;15.60;73.00;;;;;;4142214;28;19945;-87
2023/09/29 04:31:49;;;;;;;;;;;15.60;72.80;;;;;;4135913;28;19921;-87
2023/09/29 04:33:49;;;;;;;;;;;15.50;72.90;;;;;;4109635;28;19969;-88
2023/09/29 04:36:02;;;;;;;;;;;15.50;72.80;;;;;;4140618;28;20382;-86
2023/09/29 04:44:08;;;;;;;;;;;15.60;73.40;;;;;;4169386;28;20466;-86
2023/09/29 04:46:28;;;;;;;;;;;15.50;73.00;;;;;;4170962;28;19917;-87
2023/09/29 04:48:29;;;;;;;;;;;15.50;73.00;;;;;;4168794;28;19940;-86
2023/09/29 04:50:50;;;;;;;;;;;15.50;73.10;;;;;;4153503;28;19959;-86
2023/09/29 04:52:50;;;;;;;;;;;15.50;73.10;;;;;;4172866;28;19913;-86
2023/09/29 04:54:54;;;;;;;;;;;15.50;73.20;;;;;;4154095;28;20008;-88
2023/09/29 04:56:56;;;;;;;;;;;15.50;73.10;;;;;;4154281;28;20219;-89
2023/09/29 04:58:58;;;;;;;;;;;15.60;73.20;;;;;;4156901;28;20558;-88
2023/09/29 05:01:16;;;;;;;;;;;15.50;73.30;;;;;;4153487;28;19955;-88
2023/09/29 05:03:37;;;;;;;;;;;15.50;73.20;;;;;;4156132;28;19913;-88
2023/09/29 05:06:29;;;;;;;;;;;;;;;;;;;;;
2023/09/29 05:08:53;;;;;;;;;;;15.60;73.40;;;;;;4156437;28;19917;-88
2023/09/29 05:10:53;;;;;;;;;;;15.50;73.40;;;;;;4135211;28;19921;-88
2023/09/29 05:13:36;;;;;;;;;;;15.50;73.40;;;;;;4156828;28;19972;-89
2023/09/29 05:15:56;;;;;;;;;;;15.50;73.30;;;;;;4158497;28;19917;-88
2023/09/29 05:18:17;;;;;;;;;;;15.60;73.20;;;;;;4154665;28;19960;-86
2023/09/29 05:20:37;;;;;;;;;;;15.50;73.20;;;;;;4157958;28;19940;-87
2023/09/29 05:23:09;;;;;;;;;;;15.50;73.30;;;;;;4159813;28;19928;-87
2023/09/29 05:25:30;;;;;;;;;;;15.50;73.20;;;;;;4156759;28;19917;-87
2023/09/29 05:27:50;;;;;;;;;;;15.50;73.20;;;;;;4173246;28;19963;-88
2023/09/29 05:30:12;;;;;;;;;;;15.60;73.40;;;;;;4177962;28;19936;-87
2023/09/29 05:32:33;;;;;;;;;;;15.50;73.30;;;;;;4168120;28;20335;-87
2023/09/29 05:34:36;;;;;;;;;;;15.60;73.40;;;;;;4157651;28;20060;-88
2023/09/29 05:36:57;;;;;;;;;;;15.40;73.20;;;;;;4155175;28;19932;-88
2023/09/29 05:39:18;;;;;;;;;;;15.50;73.40;;;;;;4154637;28;19963;-87
2023/09/29 05:41:39;;;;;;;;;;;15.50;73.30;;;;;;4157961;28;20618;-88
2023/09/29 05:44:00;;;;;;;;;;;15.50;73.30;;;;;;4158207;28;19971;-87
2023/09/29 05:46:21;;;;;;;;;;;15.50;73.20;;;;;;4155245;28;19978;-87
2023/09/29 05:48:42;;;;;;;;;;;15.50;73.30;;;;;;4154723;28;19992;-87
2023/09/29 05:51:02;;;;;;;;;;;15.50;73.30;;;;;;4171918;28;19913;-88
2023/09/29 05:53:23;;;;;;;;;;;15.50;73.40;;;;;;4171329;28;19966;-87
2023/09/29 05:55:44;;;;;;;;;;;15.50;73.50;;;;;;4157298;28;20604;-88
2023/09/29 05:58:36;;;;;;;;;;;15.50;73.30;;;;;;4161529;28;20394;-87
2023/09/29 06:00:56;;;;;;;;;;;15.60;73.10;;;;;;4154506;28;19917;-88
2023/09/29 06:03:17;;;;;;;;;;;15.50;73.20;;;;;;4140889;28;20383;-88
2023/09/29 06:05:38;;;;;;;;;;;15.50;73.20;;;;;;4151697;28;19919;-88
2023/09/29 06:07:58;;;;;;;;;;;15.60;73.40;;;;;;4157536;28;20586;-88
2023/09/29 06:10:19;;;;;;;;;;;15.60;73.40;;;;;;4160674;28;20395;-88
2023/09/29 06:12:42;;;;;;;;;;;15.60;73.50;;;;;;4156847;28;19913;-88
2023/09/29 06:15:04;;;;;;;;;;;15.60;73.50;;;;;;4159332;28;20379;-88
2023/09/29 06:17:24;;;;;;;;;;;15.60;73.60;;;;;;4162006;28;20023;-89
2023/09/29 06:19:45;;;;;;;;;;;15.60;73.70;;;;;;4161465;28;20501;-89
2023/09/29 06:22:06;;;;;;;;;;;15.60;73.70;;;;;;4160012;28;19917;-88
2023/09/29 06:24:26;;;;;;;;;;;15.60;73.70;;;;;;4158567;28;20306;-89
2023/09/29 06:26:47;;;;;;;;;;;15.70;73.80;;;;;;4158918;28;19932;-89
2023/09/29 06:29:08;;;;;;;;;;;15.70;73.80;;;;;;4159058;28;20564;-88
2023/09/29 06:31:09;;;;;;;;;;;15.70;73.80;;;;;;4157977;28;20418;-88
2023/09/29 06:33:09;;;;;;;;;;;15.70;73.90;;;;;;4140909;28;19913;-87
2023/09/29 06:35:11;;;;;;;;;;;15.70;73.90;;;;;;4138943;28;19931;-88
2023/09/29 06:37:11;;;;;;;;;;;15.80;73.90;;;;;;4143612;28;19914;-88
2023/09/29 06:39:12;;;;;;;;;;;15.70;73.90;;;;;;4159516;28;20512;-88
2023/09/29 06:41:15;;;;;;;;;;;15.80;74.00;;;;;;4166924;28;19928;-88
2023/09/29 06:43:17;;;;;;;;;;;15.90;74.10;;;;;;4158272;28;19917;-88
2023/09/29 06:45:17;;;;;;;;;;;15.80;74.00;;;;;;4154807;28;19921;-88
2023/09/29 06:47:18;;;;;;;;;;;15.80;74.00;;;;;;4153690;28;19953;-88
2023/09/29 06:49:22;;;;;;;;;;;15.80;74.00;;;;;;4157797;28;20435;-88
2023/09/29 06:51:23;;;;;;;;;;;15.90;74.10;;;;;;4160389;28;19913;-89
2023/09/29 06:53:24;;;;;;;;;;;16.00;74.20;;;;;;4140427;28;19924;-88
2023/09/29 06:55:24;;;;;;;;;;;15.90;74.00;;;;;;4160000;28;19917;-89
2023/09/29 06:57:25;;;;;;;;;;;15.90;74.00;;;;;;4157524;28;19928;-89
2023/09/29 06:59:26;;;;;;;;;;;15.90;74.30;;;;;;4158585;28;19920;-89
2023/09/29 07:01:27;;;;;;;;;;;16.00;74.60;;;;;;4137322;28;20017;-88
2023/09/29 07:03:31;;;;;;;;;;;16.10;74.40;;;;;;4154060;28;19924;-90
2023/09/29 07:05:32;;;;;;;;;;;16.10;74.30;;;;;;4160440;28;20439;-88
2023/09/29 07:07:33;;;;;;;;;;;16.00;74.30;;;;;;4142449;28;19917;-89
2023/09/29 07:09:33;;;;;;;;;;;16.00;74.20;;;;;;4146477;28;19914;-89
2023/09/29 07:11:35;;;;;;;;;;;16.10;74.30;;;;;;4140168;28;19917;-90
2023/09/29 07:13:38;;;;;;;;;;;16.10;74.30;;;;;;4159017;28;19917;-89
2023/09/29 07:15:39;;;;;;;;;;;16.10;74.30;;;;;;4156872;28;20024;-89
2023/09/29 07:17:41;;;;;;;;;;;16.10;74.40;;;;;;4155800;28;20720;-89
2023/09/29 07:19:43;;;;;;;;;;;16.10;74.30;;;;;;4150810;28;19914;-89
2023/09/29 07:21:43;;;;;;;;;;;16.20;74.30;;;;;;4175320;28;19925;-89
2023/09/29 07:23:44;;;;;;;;;;;16.30;74.40;;;;;;4164550;28;19906;-90
2023/09/29 07:25:45;;;;;;;;;;;16.20;74.30;;;;;;4176804;28;19917;-88
2023/09/29 07:27:45;;;;;;;;;;;16.30;74.40;;;;;;4164559;28;19917;-89
2023/09/29 07:29:46;;;;;;;;;;;16.40;74.40;;;;;;4155571;28;19913;-88
2023/09/29 07:31:48;;;;;;;;;;;16.30;74.40;;;;;;4155940;28;19921;-88
2023/09/29 07:33:48;;;;;;;;;;;16.30;74.30;;;;;;4159649;28;19944;-89
2023/09/29 07:35:50;;;;;;;;;;;16.40;74.20;;;;;;4160049;28;19920;-87
2023/09/29 07:37:51;;;;;;;;;;;16.50;74.10;;;;;;4160538;28;20330;-89
2023/09/29 07:39:51;;;;;;;;;;;16.40;74.30;;;;;;4157434;28;19997;-88
2023/09/29 07:41:52;;;;;;;;;;;16.50;74.30;;;;;;4158861;28;19980;-88
2023/09/29 07:43:53;;;;;;;;;;;16.50;74.20;;;;;;4156365;28;19988;-88
2023/09/29 07:45:54;;;;;;;;;;;16.50;74.10;;;;;;4140012;28;19953;-88
2023/09/29 07:47:54;;;;;;;;;;;16.50;74.50;;;;;;4156834;28;20015;-88
2023/09/29 07:49:56;;;;;;;;;;;16.50;74.40;;;;;;4135811;28;19917;-89
2023/09/29 07:51:57;;;;;;;;;;;16.60;74.40;;;;;;4156941;28;19921;-89
2023/09/29 07:53:58;;;;;;;;;;;16.60;74.40;;;;;;4157490;28;20008;-89
2023/09/29 07:55:59;;;;;;;;;;;16.60;74.40;;;;;;4155607;28;19925;-89
2023/09/29 07:58:00;;;;;;;;;;;16.60;74.30;;;;;;4156418;28;19983;-89
2023/09/29 08:00:01;;;;;;;;;;;16.60;74.40;;;;;;4153791;28;20894;-88
2023/09/29 08:02:02;;;;;;;;;;;16.60;74.30;;;;;;4156200;28;20537;-88
2023/09/29 08:04:05;;;;;;;;;;;16.70;74.30;;;;;;4154513;28;19956;-89
2023/09/29 08:06:05;;;;;;;;;;;16.70;74.40;;;;;;4165684;28;19906;-88
2023/09/29 08:08:07;;;;;;;;;;;16.70;74.40;;;;;;4179087;28;19905;-89
2023/09/29 08:10:10;;;;;;;;;;;16.70;74.40;;;;;;4161975;28;20351;-88
2023/09/29 08:12:11;;;;;;;;;;;16.70;74.20;;;;;;4158387;28;19967;-89
2023/09/29 08:14:12;;;;;;;;;;;16.80;74.40;;;;;;4156327;28;20482;-89
2023/09/29 08:16:13;;;;;;;;;;;16.70;74.30;;;;;;4173919;28;19960;-88
2023/09/29 08:18:14;;;;;;;;;;;16.80;74.40;;;;;;4155831;28;19925;-89
2023/09/29 08:20:15;;;;;;;;;;;16.80;74.30;;;;;;4153749;28;19928;-89
2023/09/29 08:22:15;;;;;;;;;;;16.90;74.30;;;;;;4156788;28;20367;-89
2023/09/29 08:24:16;;;;;;;;;;;16.90;74.20;;;;;;4158616;28;19913;-88
2023/09/29 08:29:23;;;;;;;;;;;17.00;74.40;;;;;;4148003;23;19983;-89
2023/09/29 08:31:24;;;;;;;;;;;16.90;74.40;;;;;;4156679;28;19925;-88
2023/09/29 08:33:28;;;;;;;;;;;17.10;74.40;;;;;;4152282;28;19913;-88
2023/09/29 08:35:35;;;;;;;;;;;17.00;74.30;;;;;;4154251;28;19921;-89
2023/09/29 08:37:35;;;;;;;;;;;17.10;74.40;;;;;;4154615;28;19921;-88
2023/09/29 08:39:36;;;;;;;;;;;17.20;74.50;;;;;;4174370;28;19921;-88
2023/09/29 08:44:29;;;;;;;;;;;17.20;74.50;;;;;;4169525;28;19932;-87
2023/09/29 08:46:33;;;;;;;;;;;17.20;74.60;;;;;;4133873;28;19922;-87
2023/09/29 08:48:35;;;;;;;;;;;17.30;74.60;;;;;;4127909;28;19922;-87
2023/09/29 08:50:36;;;;;;;;;;;17.30;74.60;;;;;;4166849;28;19921;-88
2023/09/29 08:52:37;;;;;;;;;;;17.30;75.20;;;;;;4156660;28;19944;-89
2023/09/29 08:54:38;;;;;;;;;;;17.40;74.90;;;;;;4155052;28;20028;-87
2023/09/29 08:56:39;;;;;;;;;;;17.50;75.00;;;;;;4141360;28;20534;-87
2023/09/29 08:58:40;;;;;;;;;;;17.40;74.50;;;;;;4153436;28;19928;-87
2023/09/29 09:00:42;;;;;;;;;;;17.50;74.50;;;;;;4151392;28;19913;-88
2023/09/29 09:02:43;;;;;;;;;;;17.50;74.70;;;;;;4152270;28;19920;-88
2023/09/29 09:04:44;;;;;;;;;;;17.50;74.90;;;;;;4137643;28;19922;-88
2023/09/29 09:06:49;;;;;;;;;;;17.60;74.60;;;;;;4151634;28;19925;-88
2023/09/29 09:08:50;;;;;;;;;;;17.50;74.50;;;;;;4152166;28;19913;-88
2023/09/29 09:11:18;;;;;;;;;;;17.50;74.50;;;;;;4140786;28;19925;-87
2023/09/29 09:13:48;;;;;;;;;;;17.50;74.40;;;;;;4155786;28;19931;-89
2023/09/29 09:15:56;;;;;;;;;;;17.50;74.40;;;;;;4126632;28;20033;-88
2023/09/29 09:17:57;;;;;;;;;;;17.50;74.40;;;;;;4147171;28;20353;-89
2023/09/29 09:19:57;;;;;;;;;;;17.60;74.80;;;;;;4155185;28;21656;-88
2023/09/29 09:21:58;;;;;;;;;;;17.60;74.90;;;;;;4169194;28;19921;-87
2023/09/29 09:23:59;;;;;;;;;;;17.60;75.10;;;;;;4173372;28;19920;-88
2023/09/29 09:26:16;;;;;;;;;;;17.70;75.10;;;;;;4156095;28;19919;-87
2023/09/29 09:28:22;;;;;;;;;;;17.60;75.20;;;;;;4173633;28;19923;-88
2023/09/29 09:30:23;;;;;;;;;;;17.70;75.10;;;;;;4169681;28;19917;-89
2023/09/29 09:32:25;;;;;;;;;;;17.70;74.90;;;;;;4155829;28;19982;-88
2023/09/29 09:34:33;;;;;;;;;;;17.80;75.80;;;;;;4173995;28;20306;-88
2023/09/29 09:36:43;;;;;;;;;;;17.80;75.10;;;;;;4177498;28;20055;-89
2023/09/29 09:38:44;;;;;;;;;;;17.80;75.00;;;;;;4144503;28;19929;-88
2023/09/29 09:40:45;;;;;;;;;;;17.80;75.10;;;;;;4174470;28;19988;-89
2023/09/29 09:42:46;;;;;;;;;;;17.90;75.30;;;;;;4143214;28;19933;-88
2023/09/29 09:44:53;;;;;;;;;;;17.90;75.20;;;;;;4158658;28;20056;-88
2023/09/29 09:47:03;;;;;;;;;;;17.90;74.90;;;;;;4160979;28;19953;-88
2023/09/29 09:49:25;;;;;;;;;;;17.90;75.00;;;;;;4160180;28;19913;-89
2023/09/29 09:51:47;;;;;;;;;;;17.90;74.80;;;;;;4159855;28;19916;-88
2023/09/29 09:54:09;;;;;;;;;;;18.00;74.80;;;;;;4163912;28;19936;-88
2023/09/29 09:56:45;;;;;;;;;;;17.90;74.60;;;;;;4162742;28;19921;-88
2023/09/29 09:59:07;;;;;;;;;;;17.90;74.50;;;;;;4158247;28;19920;-88
2023/09/29 10:01:28;;;;;;;;;;;17.90;74.60;;;;;;4174602;28;19931;-89
2023/09/29 10:03:49;;;;;;;;;;;18.00;74.60;;;;;;4162332;28;19913;-89
2023/09/29 10:06:09;;;;;;;;;;;18.00;74.40;;;;;;4160848;28;19977;-90
2023/09/29 10:08:30;;;;;;;;;;;18.00;74.40;;;;;;4159589;28;19913;-89
2023/09/29 10:10:51;;;;;;;;;;;18.00;74.40;;;;;;4170812;28;19921;-89
2023/09/29 10:13:16;;;;;;;;;;;18.00;74.50;;;;;;4160995;28;19962;-89
2023/09/29 10:15:17;;;;;;;;;;;18.10;74.40;;;;;;4168910;28;19921;-90
2023/09/29 10:17:21;;;;;;;;;;;18.00;74.40;;;;;;4157511;28;19925;-90
2023/09/29 10:19:22;;;;;;;;;;;18.10;74.50;;;;;;4155186;28;19917;-88
2023/09/29 10:21:22;;;;;;;;;;;18.10;74.60;;;;;;4141451;28;19948;-90
2023/09/29 10:23:26;;;;;;;;;;;18.10;74.60;;;;;;4161461;28;19917;-90
2023/09/29 10:25:27;;;;;;;;;;;18.10;74.60;;;;;;4142643;28;19948;-89
2023/09/29 10:27:31;;;;;;;;;;;18.10;74.60;;;;;;4175975;28;19971;-89
2023/09/29 10:29:37;;;;;;;;;;;18.10;74.50;;;;;;4156860;28;19910;-90
2023/09/29 10:31:38;;;;;;;;;;;18.10;74.50;;;;;;4166604;28;20011;-89
2023/09/29 10:33:50;;;;;;;;;;;18.10;74.60;;;;;;4158594;28;20649;-89
2023/09/29 10:35:51;;;;;;;;;;;18.20;74.50;;;;;;4158422;28;19917;-89
2023/09/29 10:37:55;;;;;;;;;;;18.20;74.50;;;;;;4173584;28;19967;-90
2023/09/29 10:39:56;;;;;;;;;;;18.20;74.50;;;;;;4145982;28;19913;-91
2023/09/29 10:41:58;;;;;;;;;;;18.20;74.60;;;;;;4177158;28;19935;-90
2023/09/29 10:43:59;;;;;;;;;;;18.30;74.50;;;;;;4158828;28;19925;-90
2023/09/29 10:46:05;;;;;;;;;;;18.30;74.50;;;;;;4154734;28;19935;-89
2023/09/29 10:48:07;;;;;;;;;;;18.30;74.40;;;;;;4157142;28;19924;-90
2023/09/29 10:50:23;;;;;;;;;;;18.30;74.40;;;;;;4170670;28;19921;-88
2023/09/29 10:52:28;;;;;;;;;;;18.30;74.40;;;;;;4179938;28;19959;-90
2023/09/29 10:54:29;;;;;;;;;;;18.30;74.40;;;;;;4142145;28;20331;-90
2023/09/29 10:56:30;;;;;;;;;;;18.30;74.60;;;;;;4144288;28;19914;-92
2023/09/29 10:58:37;;;;;;;;;;;18.40;74.70;;;;;;4172731;28;19924;-91
2023/09/29 11:01:01;;;;;;;;;;;18.40;74.90;;;;;;4152274;28;20534;-91
2023/09/29 11:03:27;;;;;;;;;;;18.50;75.30;;;;;;4144165;28;20107;-91
2023/09/29 11:05:28;;;;;;;;;;;18.50;75.30;;;;;;4146003;28;19920;-90
2023/09/29 11:07:29;;;;;;;;;;;18.60;75.40;;;;;;4154601;28;19967;-92
2023/09/29 11:11:34;;;;;;;;;;;18.70;75.60;;;;;;4150260;28;19934;-87
2023/09/29 11:13:37;;;;;;;;;;;18.80;75.40;;;;;;4132105;28;19918;-88
2023/09/29 11:15:38;;;;;;;;;;;18.80;75.50;;;;;;4152662;28;19924;-88
2023/09/29 11:17:46;;;;;;;;;;;18.90;75.50;;;;;;4138902;28;19933;-87
2023/09/29 11:19:50;;;;;;;;;;;19.00;75.50;;;;;;4134450;28;19922;-87
2023/09/29 11:21:51;;;;;;;;;;;19.00;75.70;;;;;;4152579;28;20367;-87
2023/09/29 11:23:53;;;;;;;;;;;19.10;75.70;;;;;;4137554;28;19927;-87
2023/09/29 11:25:54;;;;;;;;;;;19.20;75.60;;;;;;4118434;28;19929;-89
2023/09/29 11:27:55;;;;;;;;;;;19.30;75.50;;;;;;4127298;28;19921;-89
2023/09/29 11:29:56;;;;;;;;;;;19.30;75.30;;;;;;4135925;28;20393;-89
2023/09/29 11:31:57;;;;;;;;;;;19.40;75.00;;;;;;4129880;28;19980;-88
2023/09/29 11:34:20;;;;;;;;;;;19.40;75.10;;;;;;4130813;28;20403;-88
2023/09/29 11:36:22;;;;;;;;;;;19.40;74.90;;;;;;4126367;28;19984;-88
2023/09/29 11:38:23;;;;;;;;;;;19.60;75.00;;;;;;4150969;28;19921;-88
2023/09/29 11:40:24;;;;;;;;;;;19.60;74.80;;;;;;4149736;28;20447;-87
2023/09/29 11:42:41;;;;;;;;;;;19.60;74.60;;;;;;4128661;28;20799;-87
2023/09/29 11:44:41;;;;;;;;;;;19.70;74.50;;;;;;4132364;28;19920;-89
2023/09/29 11:47:02;;;;;;;;;;;19.70;73.50;;;;;;4127424;28;21519;-87
2023/09/29 11:49:22;;;;;;;;;;;19.80;73.90;;;;;;4132189;28;20412;-88
2023/09/29 11:51:24;;;;;;;;;;;19.80;73.70;;;;;;4112530;28;19929;-89
2023/09/29 11:53:44;;;;;;;;;;;19.90;73.70;;;;;;4138585;28;20294;-87
2023/09/29 11:56:11;;;;;;;;;;;20.00;73.40;;;;;;4143836;28;19986;-90
2023/09/29 11:58:31;;;;;;;;;;;20.00;73.10;;;;;;4127026;28;20454;-87
2023/09/29 12:00:52;;;;;;;;;;;20.00;73.00;;;;;;4148327;28;20674;-88
2023/09/29 12:03:13;;;;;;;;;;;20.10;73.00;;;;;;4144944;28;20001;-89
2023/09/29 12:05:34;;;;;;;;;;;20.00;72.40;;;;;;4132330;28;20416;-90
2023/09/29 12:07:57;;;;;;;;;;;20.10;72.50;;;;;;4142438;28;20522;-89
2023/09/29 12:10:18;;;;;;;;;;;20.10;72.40;;;;;;4143635;28;19921;-90
2023/09/29 12:12:38;;;;;;;;;;;20.20;72.40;;;;;;4131219;28;21444;-88
2023/09/29 12:14:59;;;;;;;;;;;20.20;71.40;;;;;;4132047;28;20536;-88
2023/09/29 12:17:00;;;;;;;;;;;20.20;71.20;;;;;;4121544;28;20510;-87
2023/09/29 12:19:01;;;;;;;;;;;20.20;71.10;;;;;;4126034;28;19933;-88
2023/09/29 12:21:11;;;;;;;;;;;20.30;71.40;;;;;;4150081;28;19943;-87
2023/09/29 12:23:12;;;;;;;;;;;20.30;71.00;;;;;;4132229;28;19933;-87
2023/09/29 12:25:39;;;;;;;;;;;20.30;71.40;;;;;;4144571;28;19913;-87
2023/09/29 12:27:40;;;;;;;;;;;20.30;71.40;;;;;;4112847;28;19953;-88
2023/09/29 12:29:41;;;;;;;;;;;20.40;71.60;;;;;;4129189;28;19921;-88
2023/09/29 12:31:42;;;;;;;;;;;20.40;71.40;;;;;;4143578;28;20020;-86
2023/09/29 12:33:44;;;;;;;;;;;20.40;71.40;;;;;;4126804;28;19946;-85
2023/09/29 12:35:45;;;;;;;;;;;20.40;71.40;;;;;;4129304;28;19921;-85
2023/09/29 12:37:46;;;;;;;;;;;20.50;71.30;;;;;;4147442;28;19972;-84
2023/09/29 12:39:49;;;;;;;;;;;20.50;71.30;;;;;;4129043;28;20652;-86
2023/09/29 12:41:49;;;;;;;;;;;20.50;71.40;;;;;;4117961;28;20362;-86
2023/09/29 12:43:50;;;;;;;;;;;20.60;71.50;;;;;;4144571;28;19914;-86
2023/09/29 12:45:51;;;;;;;;;;;20.60;71.00;;;;;;4149701;28;20318;-85
2023/09/29 12:47:53;;;;;;;;;;;20.60;71.20;;;;;;4131249;28;19922;-89
2023/09/29 12:49:54;;;;;;;;;;;20.70;70.90;;;;;;4147767;28;19932;-87
2023/09/29 12:51:56;;;;;;;;;;;20.70;70.30;;;;;;4132368;28;20429;-87
2023/09/29 12:53:59;;;;;;;;;;;20.70;69.80;;;;;;4128293;28;19922;-87
2023/09/29 12:56:01;;;;;;;;;;;20.70;69.60;;;;;;4143437;28;19959;-88
2023/09/29 12:58:05;;;;;;;;;;;20.70;69.60;;;;;;4145926;28;19937;-87
2023/09/29 13:00:05;;;;;;;;;;;20.70;69.40;;;;;;4141464;28;20398;-86
2023/09/29 13:02:07;;;;;;;;;;;20.70;68.70;;;;;;4131726;28;20040;-86
2023/09/29 13:04:08;;;;;;;;;;;20.70;68.80;;;;;;4132779;28;19921;-88
2023/09/29 13:06:32;;;;;;;;;;;20.70;68.90;;;;;;4134590;28;19923;-87
2023/09/29 13:08:33;;;;;;;;;;;20.70;68.60;;;;;;4122270;28;19921;-87